Time;durP1;ratioP1;P1;durP2;ratioP2;P2;SDS_P1;SDS_P2;PMS_P1;PMS_P2;Temp;Humidity;BMP_temperature;BMP_pressure;BME280_temperature;BME280_humidity;BME280_pressure;Samples;Min_cycle;Max_cycle;Signal;HPM_P1;HPM_P2
2022/03/08 00:02:05;;;;;;;19.75;9.85;;;;;;;;;;5053094;28;20037;-70
2022/03/08 00:05:10;;;;;;;16.58;9.52;;;;;;;;;;5053527;28;20041;-70
2022/03/08 00:08:14;;;;;;;16.23;10.50;;;;;;;;;;5053147;28;20033;-70
2022/03/08 00:11:18;;;;;;;20.40;10.18;;;;;;;;;;5053398;28;20039;-71
2022/03/08 00:14:22;;;;;;;18.60;10.85;;;;;;;;;;5053064;28;20064;-70
2022/03/08 00:17:27;;;;;;;21.70;10.57;;;;;;;;;;5053350;28;20051;-70
2022/03/08 00:20:31;;;;;;;113.32;17.60;;;;;;;;;;5054598;28;20080;-70
2022/03/08 00:23:35;;;;;;;69.60;13.95;;;;;;;;;;5051891;28;20040;-70
2022/03/08 00:26:40;;;;;;;29.65;11.63;;;;;;;;;;5052178;28;20048;-70
2022/03/08 00:29:44;;;;;;;17.25;9.95;;;;;;;;;;5051206;28;20048;-70
2022/03/08 00:32:49;;;;;;;15.88;9.75;;;;;;;;;;5052650;28;20446;-70
2022/03/08 00:35:54;;;;;;;15.82;9.55;;;;;;;;;;5052776;28;20033;-70
2022/03/08 00:38:58;;;;;;;16.02;9.57;;;;;;;;;;5053191;28;20045;-70
2022/03/08 00:42:03;;;;;;;13.52;9.23;;;;;;;;;;5052863;28;20037;-70
2022/03/08 00:45:08;;;;;;;15.45;9.55;;;;;;;;;;5053254;28;20049;-70
2022/03/08 00:48:13;;;;;;;15.35;10.23;;;;;;;;;;5053059;28;20036;-70
2022/03/08 00:51:17;;;;;;;16.17;9.40;;;;;;;;;;5053020;28;20077;-70
2022/03/08 00:54:22;;;;;;;14.20;10.13;;;;;;;;;;5051812;28;20033;-70
2022/03/08 00:57:27;;;;;;;22.85;11.80;;;;;;;;;;5051749;28;20048;-70
2022/03/08 01:00:32;;;;;;;16.70;10.90;;;;;;;;;;5052013;28;20428;-70
2022/03/08 01:03:37;;;;;;;15.55;9.93;;;;;;;;;;5051285;28;20044;-70
2022/03/08 01:06:44;;;;;;;17.70;11.23;;;;;;;;;;5052390;28;20049;-70
2022/03/08 01:09:48;;;;;;;18.13;10.80;;;;;;;;;;5051418;28;20052;-70
2022/03/08 01:12:53;;;;;;;19.90;10.88;;;;;;;;;;5051729;28;20040;-70
2022/03/08 01:15:57;;;;;;;16.80;11.43;;;;;;;;;;5051544;28;20060;-70
2022/03/08 01:19:02;;;;;;;16.17;11.50;;;;;;;;;;5051720;28;20052;-70
2022/03/08 01:22:08;;;;;;;16.10;10.75;;;;;;;;;;5050818;28;20047;-70
2022/03/08 01:25:14;;;;;;;15.65;10.40;;;;;;;;;;5051170;28;20104;-70
2022/03/08 01:28:18;;;;;;;16.80;10.93;;;;;;;;;;5050376;28;20044;-70
2022/03/08 01:31:22;;;;;;;15.25;10.48;;;;;;;;;;5051294;28;20499;-70
2022/03/08 01:34:29;;;;;;;17.77;11.25;;;;;;;;;;5051374;28;20051;-70
2022/03/08 01:37:33;;;;;;;16.85;10.77;;;;;;;;;;5051431;28;20040;-70
2022/03/08 01:40:37;;;;;;;17.70;11.65;;;;;;;;;;5051454;28;20056;-70
2022/03/08 01:43:41;;;;;;;23.27;11.50;;;;;;;;;;5050841;28;20067;-70
2022/03/08 01:46:46;;;;;;;17.42;11.90;;;;;;;;;;5051466;28;20051;-70
2022/03/08 01:49:51;;;;;;;16.88;11.48;;;;;;;;;;5050376;28;20040;-70
2022/03/08 01:52:56;;;;;;;20.48;11.20;;;;;;;;;;5050451;28;20068;-70
2022/03/08 01:56:00;;;;;;;37.53;10.77;;;;;;;;;;5051312;28;20048;-70
2022/03/08 01:59:05;;;;;;;21.02;11.25;;;;;;;;;;5051059;28;20060;-70
2022/03/08 02:02:09;;;;;;;20.38;11.38;;;;;;;;;;5050324;28;20036;-70
2022/03/08 02:05:13;;;;;;;20.83;11.88;;;;;;;;;;5050958;28;20052;-70
2022/03/08 02:08:17;;;;;;;23.90;12.25;;;;;;;;;;5050741;28;20048;-70
2022/03/08 02:11:22;;;;;;;19.40;11.68;;;;;;;;;;5050668;28;20051;-70
2022/03/08 02:14:27;;;;;;;20.95;12.93;;;;;;;;;;5050798;28;20067;-70
2022/03/08 02:17:33;;;;;;;28.00;13.35;;;;;;;;;;5050829;28;20049;-70
2022/03/08 02:20:37;;;;;;;22.88;11.98;;;;;;;;;;5050997;28;20112;-70
2022/03/08 02:23:41;;;;;;;21.23;11.65;;;;;;;;;;5050984;28;20051;-70
2022/03/08 02:26:46;;;;;;;22.40;12.02;;;;;;;;;;5050744;28;20040;-70
2022/03/08 02:29:51;;;;;;;16.33;11.25;;;;;;;;;;5051045;28;20067;-70
2022/03/08 02:32:56;;;;;;;20.08;11.98;;;;;;;;;;5050706;28;20052;-70
2022/03/08 02:36:00;;;;;;;22.48;12.10;;;;;;;;;;5051119;28;20056;-70
2022/03/08 02:39:05;;;;;;;19.08;11.98;;;;;;;;;;5050780;28;20056;-70
2022/03/08 02:42:09;;;;;;;14.57;9.68;;;;;;;;;;5050788;28;20048;-70
2022/03/08 02:45:14;;;;;;;15.18;9.48;;;;;;;;;;5050865;28;20041;-70
2022/03/08 02:48:18;;;;;;;16.25;10.13;;;;;;;;;;5050585;28;20172;-70
2022/03/08 02:51:22;;;;;;;18.83;9.95;;;;;;;;;;5050400;28;20419;-70
2022/03/08 02:54:26;;;;;;;14.20;10.18;;;;;;;;;;5050740;28;20037;-70
2022/03/08 02:57:30;;;;;;;16.98;11.00;;;;;;;;;;5050589;28;20044;-70
2022/03/08 03:00:35;;;;;;;13.50;9.38;;;;;;;;;;5050761;28;20080;-70
2022/03/08 03:03:39;;;;;;;15.35;10.05;;;;;;;;;;5049684;28;20029;-70
2022/03/08 03:06:44;;;;;;;14.20;10.05;;;;;;;;;;5050752;28;20044;-70
2022/03/08 03:09:50;;;;;;;18.90;9.65;;;;;;;;;;5050411;28;20040;-70
2022/03/08 03:12:55;;;;;;;18.33;11.65;;;;;;;;;;5050329;28;20045;-70
2022/03/08 03:15:59;;;;;;;15.48;9.75;;;;;;;;;;5050152;28;20200;-70
2022/03/08 03:19:04;;;;;;;16.15;10.25;;;;;;;;;;5051387;28;20496;-70
2022/03/08 03:22:08;;;;;;;17.27;10.05;;;;;;;;;;5053784;28;20052;-70
2022/03/08 03:25:12;;;;;;;18.63;10.00;;;;;;;;;;5053935;28;20064;-70
2022/03/08 03:28:16;;;;;;;16.27;10.43;;;;;;;;;;5054121;28;20040;-70
2022/03/08 03:31:21;;;;;;;18.35;10.68;;;;;;;;;;5054110;28;20516;-70
2022/03/08 03:34:25;;;;;;;16.80;10.27;;;;;;;;;;5054098;28;20504;-70
2022/03/08 03:37:29;;;;;;;18.23;11.05;;;;;;;;;;5053787;28;20052;-70
2022/03/08 03:40:34;;;;;;;17.77;11.63;;;;;;;;;;5053637;28;20056;-70
2022/03/08 03:43:38;;;;;;;15.55;10.13;;;;;;;;;;5053833;28;20048;-70
2022/03/08 03:46:42;;;;;;;15.70;10.88;;;;;;;;;;5053484;28;20044;-70
2022/03/08 03:49:47;;;;;;;30.05;11.43;;;;;;;;;;5053764;28;20509;-70
2022/03/08 03:52:51;;;;;;;26.65;11.52;;;;;;;;;;5053668;28;20055;-70
2022/03/08 03:55:55;;;;;;;21.40;11.80;;;;;;;;;;5053179;28;20495;-70
2022/03/08 03:59:00;;;;;;;20.05;11.05;;;;;;;;;;5053573;28;20055;-70
2022/03/08 04:02:04;;;;;;;19.17;11.50;;;;;;;;;;5053291;28;20071;-70
2022/03/08 04:05:09;;;;;;;24.88;11.65;;;;;;;;;;5053580;28;20056;-70
2022/03/08 04:08:14;;;;;;;16.20;10.82;;;;;;;;;;5053368;28;20052;-70
2022/03/08 04:11:18;;;;;;;17.13;11.50;;;;;;;;;;5052871;28;20048;-70
2022/03/08 04:14:22;;;;;;;18.58;12.02;;;;;;;;;;5052748;28;20048;-70
2022/03/08 04:17:26;;;;;;;18.73;10.88;;;;;;;;;;5053306;28;20069;-70
2022/03/08 04:20:31;;;;;;;17.63;12.23;;;;;;;;;;5052936;28;20051;-70
2022/03/08 04:23:35;;;;;;;16.92;11.68;;;;;;;;;;5052997;28;20044;-70
2022/03/08 04:26:40;;;;;;;18.00;11.35;;;;;;;;;;5053016;28;20056;-70
2022/03/08 04:29:44;;;;;;;19.35;11.07;;;;;;;;;;5052788;28;20048;-70
2022/03/08 04:32:50;;;;;;;20.67;11.57;;;;;;;;;;5052775;28;20384;-70
2022/03/08 04:35:54;;;;;;;23.08;12.20;;;;;;;;;;5052822;28;20048;-70
2022/03/08 04:38:59;;;;;;;120.20;17.67;;;;;;;;;;5052290;28;20048;-70
2022/03/08 04:42:03;;;;;;;70.45;15.52;;;;;;;;;;5052670;28;20052;-70
2022/03/08 04:45:09;;;;;;;50.17;15.13;;;;;;;;;;5052520;28;20527;-70
2022/03/08 04:48:13;;;;;;;23.08;12.18;;;;;;;;;;5052547;28;20056;-70
2022/03/08 04:51:18;;;;;;;21.13;12.57;;;;;;;;;;5052440;28;20040;-70
2022/03/08 04:54:22;;;;;;;21.70;13.07;;;;;;;;;;5052358;28;20044;-70
2022/03/08 04:57:27;;;;;;;20.17;12.77;;;;;;;;;;5052502;28;20044;-70
2022/03/08 05:00:32;;;;;;;22.00;12.77;;;;;;;;;;5052405;28;20728;-70
2022/03/08 05:03:36;;;;;;;27.45;13.07;;;;;;;;;;5052242;28;20040;-70
2022/03/08 05:06:41;;;;;;;52.45;14.35;;;;;;;;;;5052373;28;20471;-70
2022/03/08 05:09:45;;;;;;;69.00;14.65;;;;;;;;;;5052251;28;20036;-70
2022/03/08 05:12:50;;;;;;;26.50;13.80;;;;;;;;;;5051902;28;20116;-70
2022/03/08 05:15:54;;;;;;;20.33;13.07;;;;;;;;;;5051896;28;20056;-70
2022/03/08 05:18:58;;;;;;;24.15;12.75;;;;;;;;;;5052052;28;20519;-70
2022/03/08 05:22:02;;;;;;;23.55;13.75;;;;;;;;;;5051988;28;20044;-70
2022/03/08 05:25:07;;;;;;;23.52;12.93;;;;;;;;;;5051513;28;20047;-70
2022/03/08 05:28:11;;;;;;;20.80;13.57;;;;;;;;;;5051575;28;20515;-70
2022/03/08 05:31:15;;;;;;;28.30;13.90;;;;;;;;;;5051551;28;20044;-70
2022/03/08 05:34:20;;;;;;;26.17;13.68;;;;;;;;;;5051798;28;20044;-70
2022/03/08 05:37:24;;;;;;;24.25;13.38;;;;;;;;;;5051823;28;20052;-70
2022/03/08 05:40:29;;;;;;;21.45;13.15;;;;;;;;;;5051719;28;20400;-70
2022/03/08 05:43:33;;;;;;;22.05;13.60;;;;;;;;;;5051596;28;20047;-70
2022/03/08 05:46:38;;;;;;;29.25;14.55;;;;;;;;;;5051465;28;20520;-70
2022/03/08 05:49:42;;;;;;;23.33;14.40;;;;;;;;;;5051324;28;20044;-70
2022/03/08 05:52:46;;;;;;;29.55;17.05;;;;;;;;;;5051087;28;20500;-70
2022/03/08 05:55:51;;;;;;;36.80;17.92;;;;;;;;;;5051234;28;20112;-70
2022/03/08 05:58:55;;;;;;;27.48;15.82;;;;;;;;;;5051157;28;20060;-70
2022/03/08 06:01:59;;;;;;;22.98;15.75;;;;;;;;;;5051349;28;20516;-70
2022/03/08 06:05:04;;;;;;;25.30;15.55;;;;;;;;;;5051011;28;20056;-70
2022/03/08 06:08:08;;;;;;;41.42;14.80;;;;;;;;;;5050955;28;20036;-70
2022/03/08 06:11:12;;;;;;;22.05;12.77;;;;;;;;;;5050638;28;20084;-70
2022/03/08 06:14:18;;;;;;;20.00;12.00;;;;;;;;;;5051063;28;20052;-70
2022/03/08 06:17:22;;;;;;;21.75;11.90;;;;;;;;;;5051162;28;20064;-70
2022/03/08 06:20:26;;;;;;;19.38;11.50;;;;;;;;;;5050573;28;20048;-70
2022/03/08 06:23:30;;;;;;;20.17;12.63;;;;;;;;;;5050767;28;20040;-63
2022/03/08 06:26:35;;;;;;;26.88;12.90;;;;;;;;;;5050808;28;20048;-63
2022/03/08 06:29:39;;;;;;;27.13;13.15;;;;;;;;;;5051014;28;20052;-63
2022/03/08 06:32:44;;;;;;;19.50;12.48;;;;;;;;;;5050915;28;20044;-63
2022/03/08 06:35:48;;;;;;;22.15;13.73;;;;;;;;;;5050813;28;20044;-63
2022/03/08 06:38:52;;;;;;;26.77;14.90;;;;;;;;;;5050606;28;20531;-63
2022/03/08 06:41:56;;;;;;;26.90;14.48;;;;;;;;;;5050465;28;20052;-64
2022/03/08 06:45:01;;;;;;;26.42;14.73;;;;;;;;;;5050624;28;20036;-64
2022/03/08 06:48:08;;;;;;;24.85;14.25;;;;;;;;;;5050876;28;20047;-63
2022/03/08 06:51:14;;;;;;;23.10;13.40;;;;;;;;;;5050532;28;20111;-63
2022/03/08 06:54:18;;;;;;;25.40;13.73;;;;;;;;;;5054165;28;20048;-63
2022/03/08 06:57:22;;;;;;;22.38;12.60;;;;;;;;;;5054774;28;20048;-63
2022/03/08 07:00:26;;;;;;;20.10;11.15;;;;;;;;;;5053946;28;20056;-63
2022/03/08 07:03:31;;;;;;;22.00;11.35;;;;;;;;;;5054459;28;20047;-63
2022/03/08 07:06:35;;;;;;;19.17;11.63;;;;;;;;;;5054218;28;20048;-63
2022/03/08 07:09:40;;;;;;;16.15;8.27;;;;;;;;;;5054074;28;20032;-63
2022/03/08 07:12:44;;;;;;;14.57;8.45;;;;;;;;;;5053983;28;20044;-63
2022/03/08 07:15:49;;;;;;;13.40;8.63;;;;;;;;;;5053338;28;20632;-63
2022/03/08 07:18:54;;;;;;;22.17;8.35;;;;;;;;;;5052934;28;20432;-62
2022/03/08 07:21:58;;;;;;;14.88;7.90;;;;;;;;;;5053222;28;20044;-63
2022/03/08 07:25:03;;;;;;;12.40;7.78;;;;;;;;;;5053886;28;20056;-65
2022/03/08 07:28:08;;;;;;;14.05;8.10;;;;;;;;;;5054043;28;20050;-63
2022/03/08 07:31:12;;;;;;;15.75;8.23;;;;;;;;;;5054030;28;20037;-63
2022/03/08 07:34:17;;;;;;;11.38;8.35;;;;;;;;;;5053559;28;20037;-63
2022/03/08 07:37:21;;;;;;;13.70;7.65;;;;;;;;;;5053536;28;20044;-64
2022/03/08 07:40:26;;;;;;;12.50;7.95;;;;;;;;;;5053327;28;20052;-63
2022/03/08 07:43:31;;;;;;;16.77;8.75;;;;;;;;;;5053698;28;20048;-63
2022/03/08 07:46:34;;;;;;;14.32;8.63;;;;;;;;;;5053508;28;20049;-64
2022/03/08 07:49:39;;;;;;;14.48;9.30;;;;;;;;;;5053294;28;20036;-64
2022/03/08 07:52:43;;;;;;;22.05;8.60;;;;;;;;;;5053367;28;20543;-63
2022/03/08 07:55:48;;;;;;;12.88;7.78;;;;;;;;;;5053438;28;20041;-63
2022/03/08 07:58:52;;;;;;;11.57;7.90;;;;;;;;;;5053044;28;20050;-63
2022/03/08 08:01:57;;;;;;;10.40;7.47;;;;;;;;;;5052214;28;20048;-63
2022/03/08 08:05:01;;;;;;;12.00;7.65;;;;;;;;;;5052475;28;20032;-63
2022/03/08 08:08:06;;;;;;;15.07;7.90;;;;;;;;;;5053050;28;20040;-63
2022/03/08 08:11:10;;;;;;;11.80;7.95;;;;;;;;;;5052996;28;20041;-63
2022/03/08 08:14:15;;;;;;;10.85;6.90;;;;;;;;;;5052840;28;20048;-63
2022/03/08 08:17:19;;;;;;;11.40;6.60;;;;;;;;;;5052838;28;20041;-63
2022/03/08 08:20:23;;;;;;;12.07;7.50;;;;;;;;;;5052736;28;20049;-63
2022/03/08 08:23:28;;;;;;;10.40;6.75;;;;;;;;;;5052628;28;20041;-63
2022/03/08 08:26:33;;;;;;;11.63;6.82;;;;;;;;;;5052693;28;20037;-63
2022/03/08 08:29:37;;;;;;;9.32;6.60;;;;;;;;;;5052005;28;20044;-63
2022/03/08 08:32:43;;;;;;;13.77;6.80;;;;;;;;;;5052552;28;20037;-64
2022/03/08 08:35:48;;;;;;;15.02;7.53;;;;;;;;;;5052525;28;20041;-64
2022/03/08 08:38:52;;;;;;;11.25;7.13;;;;;;;;;;5052451;28;20425;-64
2022/03/08 08:41:57;;;;;;;10.52;6.60;;;;;;;;;;5052167;28;20041;-64
2022/03/08 08:45:01;;;;;;;10.25;6.60;;;;;;;;;;5052109;28;20029;-64
2022/03/08 08:48:06;;;;;;;9.57;6.60;;;;;;;;;;5052512;28;20080;-64
2022/03/08 08:51:10;;;;;;;9.20;6.65;;;;;;;;;;5052279;28;20033;-64
2022/03/08 08:54:15;;;;;;;11.25;6.28;;;;;;;;;;5052018;28;20037;-64
2022/03/08 08:57:19;;;;;;;9.48;6.22;;;;;;;;;;5052061;28;20041;-64
2022/03/08 09:00:24;;;;;;;9.38;6.15;;;;;;;;;;5051691;28;20049;-66
2022/03/08 09:03:28;;;;;;;12.27;5.78;;;;;;;;;;5051835;28;20037;-64
2022/03/08 09:06:32;;;;;;;11.25;6.22;;;;;;;;;;5051861;28;20041;-65
2022/03/08 09:09:36;;;;;;;8.45;5.90;;;;;;;;;;5051947;28;20033;-64
2022/03/08 09:12:41;;;;;;;9.32;5.75;;;;;;;;;;5051089;28;20160;-65
2022/03/08 09:15:45;;;;;;;11.73;6.45;;;;;;;;;;5050998;28;20057;-65
2022/03/08 09:18:50;;;;;;;13.57;6.18;;;;;;;;;;5051258;28;20037;-65
2022/03/08 09:21:54;;;;;;;13.50;6.30;;;;;;;;;;5051399;28;20053;-64
2022/03/08 09:24:58;;;;;;;11.13;6.03;;;;;;;;;;5051714;28;20045;-64
2022/03/08 09:28:05;;;;;;;12.60;6.22;;;;;;;;;;5051508;28;20044;-64
2022/03/08 09:31:09;;;;;;;8.88;5.20;;;;;;;;;;5051623;28;20052;-64
2022/03/08 09:34:14;;;;;;;18.45;5.85;;;;;;;;;;5051569;28;20040;-65
2022/03/08 09:37:18;;;;;;;8.82;5.75;;;;;;;;;;5051129;28;20404;-64
2022/03/08 09:40:23;;;;;;;7.30;4.75;;;;;;;;;;5051001;28;20048;-65
2022/03/08 09:43:27;;;;;;;8.52;6.10;;;;;;;;;;5051057;28;20504;-65
2022/03/08 09:46:33;;;;;;;11.32;5.53;;;;;;;;;;5051001;28;20037;-65
2022/03/08 09:49:38;;;;;;;15.80;5.68;;;;;;;;;;5051379;28;20029;-64
2022/03/08 09:52:43;;;;;;;10.77;5.53;;;;;;;;;;5051115;28;20477;-64
2022/03/08 09:55:47;;;;;;;9.45;5.80;;;;;;;;;;5051039;28;20550;-64
2022/03/08 09:58:51;;;;;;;7.25;4.85;;;;;;;;;;5050890;28;20041;-65
2022/03/08 10:01:55;;;;;;;7.00;5.03;;;;;;;;;;5051044;28;20044;-64
2022/03/08 10:05:07;;;;;;;12.73;6.53;;;;;;;;;;5051125;28;20594;-64
2022/03/08 10:08:19;;;;;;;11.00;5.37;;;;;;;;;;5050726;28;20045;-64
2022/03/08 10:11:23;;;;;;;;;;;;;;;;;;5051363;28;20143;-65
2022/03/08 10:14:40;;;;;;;11.27;5.13;;;;;;;;;;5050863;28;19916;-64
2022/03/08 10:17:44;;;;;;;8.75;5.68;;;;;;;;;;5050973;28;20052;-64
2022/03/08 10:20:48;;;;;;;9.25;4.97;;;;;;;;;;5050440;28;20056;-64
2022/03/08 10:23:53;;;;;;;9.52;5.43;;;;;;;;;;5050409;28;20041;-64
2022/03/08 10:26:59;;;;;;;10.02;5.35;;;;;;;;;;5050640;28;20572;-65
2022/03/08 10:30:04;;;;;;;9.55;5.68;;;;;;;;;;5050700;28;20041;-64
2022/03/08 10:33:08;;;;;;;9.45;5.43;;;;;;;;;;5050732;28;20488;-65
2022/03/08 10:36:18;;;;;;;21.13;5.32;;;;;;;;;;5050821;28;20041;-65
2022/03/08 10:39:22;;;;;;;10.80;5.93;;;;;;;;;;5050501;28;20037;-65
2022/03/08 10:42:27;;;;;;;15.82;5.38;;;;;;;;;;5050451;28;20071;-65
2022/03/08 10:45:34;;;;;;;16.85;6.65;;;;;;;;;;5050525;28;20041;-65
2022/03/08 10:48:38;;;;;;;17.38;6.43;;;;;;;;;;5049821;28;20036;-65
2022/03/08 10:51:42;;;;;;;10.30;5.43;;;;;;;;;;5050321;28;20052;-66
2022/03/08 10:54:46;;;;;;;15.32;7.10;;;;;;;;;;5050225;28;20036;-65
2022/03/08 10:57:55;;;;;;;11.43;5.53;;;;;;;;;;5050135;28;20047;-65
2022/03/08 11:01:00;;;;;;;8.63;5.07;;;;;;;;;;5050096;28;20485;-65
2022/03/08 11:04:04;;;;;;;10.68;5.85;;;;;;;;;;5050363;28;20374;-65
2022/03/08 11:07:08;;;;;;;9.05;4.80;;;;;;;;;;5050426;28;20056;-65
2022/03/08 11:10:13;;;;;;;10.27;5.38;;;;;;;;;;5049748;28;20369;-65
2022/03/08 11:13:17;;;;;;;9.65;5.40;;;;;;;;;;5050290;28;20033;-65
2022/03/08 11:16:22;;;;;;;10.68;5.65;;;;;;;;;;5050881;28;20044;-65
2022/03/08 11:19:29;;;;;;;12.65;6.18;;;;;;;;;;5051197;28;20044;-65
2022/03/08 11:22:34;;;;;;;9.30;4.95;;;;;;;;;;5051804;28;20047;-65
2022/03/08 11:25:39;;;;;;;10.93;5.68;;;;;;;;;;5052261;28;20381;-65
2022/03/08 11:28:48;;;;;;;12.90;4.72;;;;;;;;;;5054379;28;20040;-65
2022/03/08 11:31:54;;;;;;;17.73;4.90;;;;;;;;;;5055239;28;20058;-65
2022/03/08 11:35:21;;;;;;;8.98;4.38;;;;;;;;;;5052576;28;20427;-65
2022/03/08 11:38:26;;;;;;;9.30;4.75;;;;;;;;;;5050169;28;20041;-65
2022/03/08 11:41:29;;;;;;;10.13;3.85;;;;;;;;;;5053365;28;20556;-65
2022/03/08 11:44:35;;;;;;;15.20;4.60;;;;;;;;;;5053195;28;20036;-65
2022/03/08 11:47:41;;;;;;;8.13;3.72;;;;;;;;;;5053672;28;20037;-65
2022/03/08 11:50:46;;;;;;;15.55;5.32;;;;;;;;;;5053289;28;20033;-65
2022/03/08 11:54:08;;;;;;;7.13;3.88;;;;;;;;;;5053227;28;20041;-64
2022/03/08 11:57:17;;;;;;;9.60;4.95;;;;;;;;;;5053098;28;20041;-64
2022/03/08 12:00:21;;;;;;;14.10;5.38;;;;;;;;;;5053071;28;20045;-64
2022/03/08 12:03:29;;;;;;;19.85;4.35;;;;;;;;;;5053073;28;20044;-64
2022/03/08 12:06:35;;;;;;;14.27;4.55;;;;;;;;;;5052918;28;20396;-64
2022/03/08 12:09:40;;;;;;;8.38;4.28;;;;;;;;;;5052829;28;20063;-64
2022/03/08 12:12:44;;;;;;;10.82;4.18;;;;;;;;;;5052655;28;20041;-64
2022/03/08 12:16:10;;;;;;;7.40;4.28;;;;;;;;;;5052464;28;20053;-64
2022/03/08 12:19:20;;;;;;;13.65;4.70;;;;;;;;;;5053201;28;20045;-63
2022/03/08 12:22:25;;;;;;;12.20;4.25;;;;;;;;;;5052971;28;20049;-64
2022/03/08 12:25:30;;;;;;;5.65;3.75;;;;;;;;;;5052865;28;20045;-63
2022/03/08 12:28:53;;;;;;;10.13;4.30;;;;;;;;;;5053002;28;20045;-63
2022/03/08 12:31:57;;;;;;;8.73;3.83;;;10.10;51.30;;;;;;5052890;28;20037;-64
2022/03/08 12:35:08;;;;;;;14.30;4.13;;;9.90;52.00;;;;;;5052653;28;20499;-66
2022/03/08 12:38:17;;;;;;;17.50;3.97;;;9.70;53.00;;;;;;5052365;28;20491;-64
2022/03/08 12:41:26;;;;;;;11.35;4.03;;;9.50;51.80;;;;;;5052182;28;20052;-63
2022/03/08 12:44:29;;;;;;;9.70;4.20;;;9.40;52.60;;;;;;5052362;28;20043;-65
2022/03/08 12:47:39;;;;;;;12.82;4.50;;;9.40;52.10;;;;;;5052098;28;20041;-65
2022/03/08 12:50:46;;;;;;;5.55;3.38;;;9.40;52.90;;;;;;5052178;28;20044;-65
2022/03/08 12:53:57;;;;;;;9.98;4.10;;;9.30;51.80;;;;;;5052357;28;20033;-64
2022/03/08 12:57:01;;;;;;;9.13;4.18;;;9.10;52.20;;;;;;5052317;28;20036;-67
2022/03/08 13:00:06;;;;;;;12.50;3.80;;;9.20;53.00;;;;;;5052031;28;20049;-65
2022/03/08 13:03:21;;;;;;;10.52;4.57;;;9.20;53.70;;;;;;5052464;28;20043;-64
2022/03/08 13:06:25;;;;;;;10.57;3.83;;;9.30;53.60;;;;;;5052000;28;20044;-64
2022/03/08 13:09:46;;;;;;;9.63;3.78;;;9.30;53.30;;;;;;5051722;28;20052;-63
2022/03/08 13:13:09;;;;;;;9.10;3.53;;;9.40;54.20;;;;;;5051499;28;20033;-65
2022/03/08 13:16:22;;;;;;;13.27;5.68;;;9.10;54.30;;;;;;5051433;28;20053;-63
2022/03/08 13:19:25;;;;;;;;;;;9.00;55.60;;;;;;5051886;28;20496;-64
2022/03/08 13:22:29;;;;;;;8.93;3.53;;;9.00;56.20;;;;;;5051718;28;19983;-66
2022/03/08 13:25:35;;;;;;;6.20;4.15;;;8.80;56.40;;;;;;5051143;28;20045;-63
2022/03/08 13:28:40;;;;;;;9.18;3.75;;;8.80;55.90;;;;;;5050382;28;20037;-65
2022/03/08 13:31:45;;;;;;;8.60;3.85;;;8.70;55.50;;;;;;5050444;28;20045;-65
2022/03/08 13:35:01;;;;;;;16.65;5.35;;;8.40;55.90;;;;;;5050572;28;20385;-65
2022/03/08 13:38:08;;;;;;;7.22;3.72;;;8.30;56.60;;;;;;5050534;28;20064;-65
2022/03/08 13:41:18;;;;;;;9.18;5.07;;;8.30;56.20;;;;;;5050678;28;20390;-64
2022/03/08 13:44:24;;;;;;;6.43;3.60;;;8.40;57.20;;;;;;5051513;28;20132;-65
2022/03/08 13:47:28;;;;;;;7.20;3.80;;;8.30;57.40;;;;;;5051214;28;20037;-65
2022/03/08 13:50:32;;;;;;;7.18;3.88;;;8.30;57.80;;;;;;5051348;28;20037;-65
2022/03/08 13:53:37;;;;;;;5.75;3.70;;;8.30;57.60;;;;;;5051396;28;20048;-65
2022/03/08 13:56:50;;;;;;;9.23;4.50;;;8.20;57.50;;;;;;5051214;28;20040;-64
2022/03/08 13:59:54;;;;;;;7.22;4.28;;;8.20;57.60;;;;;;5050813;28;20049;-64
2022/03/08 14:02:59;;;;;;;13.32;4.10;;;8.30;57.20;;;;;;5050545;28;20378;-64
2022/03/08 14:06:02;;;;;;;6.38;3.67;;;8.20;57.60;;;;;;5051125;28;20048;-65
2022/03/08 14:09:15;;;;;;;10.35;4.00;;;8.10;56.90;;;;;;5050871;28;20373;-64
2022/03/08 14:12:19;;;;;;;8.52;4.50;;;8.20;57.00;;;;;;5051030;28;20048;-65
2022/03/08 14:15:24;;;;;;;10.10;4.47;;;8.30;56.50;;;;;;5050684;28;20053;-64
2022/03/08 14:18:29;;;;;;;10.27;3.80;;;8.40;57.20;;;;;;5051052;28;20341;-64
2022/03/08 14:21:37;;;;;;;9.13;3.78;;;8.40;54.60;;;;;;5050511;28;20060;-64
2022/03/08 14:24:41;;;;;;;9.15;4.68;;;8.30;55.50;;;;;;5050577;28;20029;-64
2022/03/08 14:27:50;;;;;;;10.57;3.65;;;8.20;55.40;;;;;;5051050;28;20044;-64
2022/03/08 14:30:58;;;;;;;9.90;4.85;;;8.20;54.50;;;;;;5050764;28;20060;-64
2022/03/08 14:34:02;;;;;;;8.73;5.07;;;8.20;55.70;;;;;;5050596;28;20028;-65
2022/03/08 14:37:13;;;;;;;16.88;4.55;;;8.20;55.90;;;;;;5050449;28;20037;-65
2022/03/08 14:40:35;;;;;;;7.32;3.80;;;8.40;54.90;;;;;;5050487;28;20044;-64
2022/03/08 14:43:38;;;;;;;11.57;4.90;;;8.20;53.80;;;;;;5049694;28;20045;-64
2022/03/08 14:46:42;;;;;;;13.88;3.95;;;8.20;54.50;;;;;;5050339;28;20040;-64
2022/03/08 14:49:47;;;;;;;9.63;4.88;;;8.20;54.70;;;;;;5050351;28;20036;-65
2022/03/08 14:52:53;;;;;;;11.82;4.38;;;8.30;54.50;;;;;;5050492;28;20058;-65
2022/03/08 14:55:57;;;;;;;7.13;3.80;;;8.30;53.40;;;;;;5050631;28;20040;-64
2022/03/08 14:59:01;;;;;;;12.27;4.60;;;8.40;53.20;;;;;;5050506;28;20164;-65
2022/03/08 15:02:05;;;;;;;7.75;3.20;;;8.50;53.20;;;;;;5050354;28;20044;-64
2022/03/08 15:05:10;;;;;;;10.18;3.80;;;8.40;51.80;;;;;;5050074;28;20037;-65
2022/03/08 15:08:14;;;;;;;6.70;3.35;;;8.30;52.10;;;;;;5050152;28;20543;-64
2022/03/08 15:11:18;;;;;;;7.22;3.60;;;8.10;51.40;;;;;;5050330;28;20040;-64
2022/03/08 15:14:22;;;;;;;9.27;3.80;;;8.00;52.10;;;;;;5050349;28;20389;-64
2022/03/08 15:17:26;;;;;;;9.15;4.43;;;8.10;52.90;;;;;;5054077;28;20049;-65
2022/03/08 15:20:31;;;;;;;10.20;5.55;;;8.10;52.70;;;;;;5054000;28;20049;-64
2022/03/08 15:23:34;;;;;;;5.97;3.28;;;8.00;52.90;;;;;;5053746;28;20048;-64
2022/03/08 15:26:39;;;;;;;6.75;3.88;;;8.00;52.20;;;;;;5053655;28;20041;-64
2022/03/08 15:29:42;;;;;;;10.50;4.72;;;8.10;53.20;;;;;;5053473;28;20366;-64
2022/03/08 15:32:47;;;;;;;8.70;3.60;;;8.10;53.10;;;;;;5052460;28;20039;-63
2022/03/08 15:35:51;;;;;;;7.88;3.22;;;8.10;53.00;;;;;;5053468;28;20033;-65
2022/03/08 15:38:56;;;;;;;7.68;3.60;;;8.10;53.10;;;;;;5053788;28;20045;-65
2022/03/08 15:42:00;;;;;;;8.88;3.40;;;8.20;52.70;;;;;;5053811;28;20045;-64
2022/03/08 15:45:06;;;;;;;10.40;4.65;;;8.10;52.10;;;;;;5053592;28;20032;-63
2022/03/08 15:48:10;;;;;;;8.60;4.97;;;8.20;53.20;;;;;;5053202;28;20059;-65
2022/03/08 15:51:15;;;;;;;11.55;5.30;;;8.20;53.20;;;;;;5053267;28;20377;-65
2022/03/08 15:54:18;;;;;;;9.52;4.65;;;8.30;52.90;;;;;;5053565;28;20048;-63
2022/03/08 15:57:22;;;;;;;8.32;3.83;;;8.30;52.00;;;;;;5053305;28;20037;-64
2022/03/08 16:00:27;;;;;;;12.38;3.80;;;8.30;51.10;;;;;;5052805;28;20366;-63
2022/03/08 16:03:32;;;;;;;8.98;5.53;;;8.20;51.60;;;;;;5053158;28;20044;-64
2022/03/08 16:06:37;;;;;;;11.25;5.10;;;8.20;51.80;;;;;;5053339;28;20351;-66
2022/03/08 16:09:41;;;;;;;11.43;4.07;;;8.20;51.60;;;;;;5053061;28;20504;-66
2022/03/08 16:12:45;;;;;;;10.57;5.00;;;8.20;50.50;;;;;;5052989;28;20035;-65
2022/03/08 16:15:51;;;;;;;8.82;5.03;;;8.20;51.40;;;;;;5052923;28;20059;-65
2022/03/08 16:18:57;;;;;;;10.73;4.30;;;8.20;50.80;;;;;;5052910;28;20033;-65
2022/03/08 16:22:01;;;;;;;9.00;4.05;;;8.10;50.70;;;;;;5052715;28;20051;-66
2022/03/08 16:25:05;;;;;;;8.55;4.22;;;8.00;51.50;;;;;;5052550;28;20045;-65
2022/03/08 16:28:11;;;;;;;8.60;3.83;;;8.30;53.00;;;;;;5052891;28;20140;-65
2022/03/08 16:31:15;;;;;;;8.63;4.40;;;8.00;53.00;;;;;;5052311;28;20040;-66
2022/03/08 16:34:19;;;;;;;8.48;4.40;;;8.00;52.70;;;;;;5052598;28;20044;-65
2022/03/08 16:37:23;;;;;;;10.07;5.70;;;8.00;53.20;;;;;;5052299;28;20037;-65
2022/03/08 16:40:27;;;;;;;8.82;4.30;;;7.90;53.60;;;;;;5052176;28;20067;-65
2022/03/08 16:43:32;;;;;;;9.60;5.18;;;7.90;52.60;;;;;;5052353;28;20041;-65
2022/03/08 16:46:37;;;;;;;12.93;6.50;;;7.80;53.10;;;;;;5051983;28;20045;-63
2022/03/08 16:49:41;;;;;;;8.07;4.07;;;7.80;54.20;;;;;;5052039;28;20044;-66
2022/03/08 16:52:45;;;;;;;9.00;4.05;;;7.80;54.00;;;;;;5052161;28;20045;-66
2022/03/08 16:55:48;;;;;;;8.52;5.05;;;7.80;53.60;;;;;;5052014;28;20032;-66
2022/03/08 16:58:52;;;;;;;15.40;7.95;;;7.70;54.30;;;;;;5051628;28;20045;-66
2022/03/08 17:01:56;;;;;;;10.60;6.53;;;7.60;55.10;;;;;;5051946;28;20048;-67
2022/03/08 17:05:01;;;;;;;12.45;6.68;;;7.60;54.40;;;;;;5051732;28;20047;-66
2022/03/08 17:08:06;;;;;;;41.80;20.27;;;7.70;55.00;;;;;;5051528;28;20048;-66
2022/03/08 17:11:11;;;;;;;32.53;17.95;;;7.60;53.90;;;;;;5051362;28;20047;-65
2022/03/08 17:14:15;;;;;;;24.10;14.90;;;7.70;54.10;;;;;;5051311;28;20043;-67
2022/03/08 17:17:19;;;;;;;11.98;6.03;;;7.50;52.70;;;;;;5051610;28;20392;-67
2022/03/08 17:20:23;;;;;;;14.50;5.47;;;7.40;53.20;;;;;;5051395;28;20059;-66
2022/03/08 17:23:28;;;;;;;9.48;5.55;;;7.30;53.10;;;;;;5051850;28;20036;-65
2022/03/08 17:26:32;;;;;;;11.50;6.35;;;7.20;53.40;;;;;;5051694;28;20037;-65
2022/03/08 17:29:38;;;;;;;12.60;7.55;;;7.20;54.60;;;;;;5039108;28;20068;-67
2022/03/08 17:32:42;;;;;;;10.25;6.18;;;7.10;55.40;;;;;;5051540;28;20048;-66